Waynesville, GA

12:14 PM EST on February 12, 2016 (GMT -0500)
Timber Landing | | Change Station
CLOSE
Current Station
Personal Weather Station
Location: Brunswick, GA
Elevation: 43 ft
Nearby Weather Stations
Active Advisory: Flood Warning

Elev 43 ft 31.19 °N, 81.61 °W | Updated 5 seconds ago

Mostly Cloudy
Mostly Cloudy
72.0 °F
Feels Like 76 °F
N
10.7
Wind Variable Wind from South
Gusts 18.3 mph

Today
High -- | Low -- °F
--% Chance of Precip.
Yesterday
High -- | Low -- °F
Precip. -- in
Pressure 30.12 in
Visibility 10.0 miles
Clouds Clear
Heat Index 76 °F
Dew Point 56 °F
Humidity 57%
Rainfall 0.00 in
Snow Depth Not available.
7:11 AM 6:11 PM
Waxing Crescent, 22% visible
METAR KBQK 121655Z AUTO 24013KT 10SM CLR 21/13 A3012 RMK AO2
Pressure 30.12 in
Visibility 10.0 miles
Clouds Clear
Heat Index 76 °F
Dew Point 56 °F
Humidity 57%
Rainfall 0.00 in
Snow Depth Not available.
7:11 AM 6:11 PM
Waxing Crescent, 22% visible
METAR KBQK 121655Z AUTO 24013KT 10SM CLR 21/13 A3012 RMK AO2

10-Day Weather Forecast

Almanac

Astronomy

Feb. 12, 2016 Rise Set
Actual Time
Civil Twilight
Nautical Twilight
Astronomical Twilight
Moon
Length of Visible Light
Length of Day
Tomorrow will be .
, % of the Moon is Illuminated

Today's Extremes

State Highs State Lows

Community

WunderPhotos

Upload Photos

1,892,353 photos uploaded!

WunderBlog® & News

Nearby

Air Quality

  Air Quality AQ Index Pollutant
Not available.

Snow Depth

Station Depth Elevation

Earthquake Activity

City Distance Mag. Time & Date
Minimum magnitude displayed is 2.5.

Coastal Water Temperatures

Place Temperature

Stations

Nearby Weather Stations

Station Location Temp. Windchill Dew Point Humidity Wind Precip. Elev Updated Type
                   

Watches & Warnings

Flood Warning
Issued: 8:46 AM EST Feb. 12, 2016 – National Weather Service

The Flood Warning continues for
the Satilla river at Atkinson.
* Until further notice... or until the warning is cancelled.
* At 7:45 am Friday the stage was 17.4 feet.
* Minor flooding is occurring and minor flooding is forecast.
* Flood stage is 13.0 feet.
* Forecast... the river will continue to fall to a stage of 17.0 feet
by tomorrow morning.
* Impact... at 14.0 feet... River Rock Road begins to experience
flooding across the Road.




               Fld observed 7am EST / 8am EDT forecast
location stg stg day time Sat sun Mon Tue Wed

Satilla
Atkinson 13 17.4 Fri 08 am 17.0 16.4 15.6 14.9 14.2




Lat... Lon 3128 8191 3114 8190 3114 8183 3129 8184